createdAt,value
2019-04-07T00:00:00.759Z,99.90
2019-04-07T00:01:06.339Z,99.90
2019-04-07T00:02:10.310Z,99.90
2019-04-07T00:03:13.932Z,99.90
2019-04-07T00:04:17.525Z,99.90
2019-04-07T00:05:21.763Z,99.90
2019-04-07T00:06:25.850Z,99.90
2019-04-07T00:07:29.714Z,99.90
2019-04-07T00:08:33.897Z,99.90
2019-04-07T00:09:37.612Z,99.90
2019-04-07T00:10:41.371Z,99.90
2019-04-07T00:11:45.223Z,99.90
2019-04-07T00:12:48.913Z,99.90
2019-04-07T00:13:52.512Z,99.90
2019-04-07T00:14:56.248Z,99.90
2019-04-07T00:16:00.364Z,99.90
2019-04-07T00:17:04.110Z,99.90
2019-04-07T00:19:07.935Z,99.90
2019-04-07T00:20:12.449Z,99.90
2019-04-07T00:21:16.764Z,99.90
2019-04-07T00:22:20.852Z,99.90
2019-04-07T00:23:24.699Z,99.90
2019-04-07T00:24:28.309Z,99.90
2019-04-07T00:25:31.931Z,99.90
2019-04-07T00:26:35.837Z,99.90
2019-04-07T00:27:39.487Z,99.90
2019-04-07T00:28:43.657Z,99.90
2019-04-07T00:29:47.394Z,99.90
2019-04-07T00:30:51.324Z,99.90
2019-04-07T00:31:54.970Z,99.90
2019-04-07T00:32:58.629Z,99.90
2019-04-07T00:34:02.794Z,99.90
2019-04-07T00:35:07.636Z,99.90
2019-04-07T00:36:11.259Z,99.90
2019-04-07T00:37:15.706Z,99.90
2019-04-07T00:38:19.407Z,99.90
2019-04-07T00:39:23.267Z,99.90
2019-04-07T00:40:26.933Z,99.90
2019-04-07T00:41:30.909Z,99.90
2019-04-07T00:42:34.703Z,99.90
2019-04-07T00:43:38.443Z,99.90
2019-04-07T00:44:42.133Z,99.90
2019-04-07T00:45:45.957Z,99.90
2019-04-07T00:46:49.924Z,99.90
2019-04-07T00:47:53.685Z,99.90
2019-04-07T00:48:57.859Z,99.90
2019-04-07T00:50:01.557Z,99.90
2019-04-07T00:51:05.235Z,99.90
2019-04-07T00:52:10.622Z,99.90
2019-04-07T00:53:14.500Z,99.90
2019-04-07T00:54:18.188Z,99.90
2019-04-07T00:55:22.137Z,99.90
2019-04-07T00:56:25.879Z,99.90
2019-04-07T00:57:29.629Z,99.90
2019-04-07T00:58:34.370Z,99.90
2019-04-07T00:59:38.596Z,99.90
2019-04-07T01:00:43.451Z,99.90
2019-04-07T01:01:47.234Z,99.90
2019-04-07T01:02:50.836Z,99.90
2019-04-07T01:03:54.619Z,99.90
2019-04-07T01:04:58.423Z,99.90
2019-04-07T01:06:02.206Z,99.90
2019-04-07T01:07:05.830Z,99.90
2019-04-07T01:08:09.615Z,99.90
2019-04-07T01:09:13.404Z,99.90
2019-04-07T01:10:17.444Z,99.90
2019-04-07T01:11:21.608Z,99.90
2019-04-07T01:12:25.664Z,99.90
2019-04-07T01:13:29.833Z,99.90
2019-04-07T01:14:33.658Z,99.90
2019-04-07T01:15:37.299Z,99.90
2019-04-07T01:16:40.997Z,99.90
2019-04-07T01:17:44.627Z,99.90
2019-04-07T01:18:48.233Z,99.90
2019-04-07T01:19:51.943Z,99.90
2019-04-07T01:20:55.636Z,99.90
2019-04-07T01:21:59.188Z,99.90
2019-04-07T01:23:02.861Z,99.90
2019-04-07T01:24:07.233Z,99.90
2019-04-07T01:25:11.280Z,99.90
2019-04-07T01:26:14.894Z,99.90
2019-04-07T01:27:19.173Z,99.90
2019-04-07T01:28:22.836Z,99.90
2019-04-07T01:29:26.680Z,99.90
2019-04-07T01:30:30.426Z,99.90
2019-04-07T01:31:34.176Z,99.90
2019-04-07T01:32:37.840Z,99.90
2019-04-07T01:33:41.631Z,99.90
2019-04-07T01:34:45.789Z,99.90
2019-04-07T01:35:50.337Z,99.90
2019-04-07T01:36:54.486Z,99.90
2019-04-07T01:37:58.334Z,99.90
2019-04-07T01:39:02.001Z,99.90
2019-04-07T01:40:08.100Z,99.90
2019-04-07T01:41:25.522Z,99.90
2019-04-07T01:42:39.823Z,99.90
2019-04-07T01:43:45.101Z,99.90
2019-04-07T01:45:06.452Z,99.90
2019-04-07T01:46:27.350Z,99.90
2019-04-07T01:47:42.192Z,99.90
2019-04-07T01:49:02.360Z,99.90
2019-04-07T01:50:11.970Z,99.90
2019-04-07T01:51:34.228Z,99.90
2019-04-07T01:52:42.593Z,99.90
2019-04-07T01:53:56.632Z,99.90
2019-04-07T01:55:02.728Z,99.90
2019-04-07T01:56:10.888Z,99.90
2019-04-07T01:57:28.918Z,99.90
2019-04-07T01:58:37.075Z,99.90
2019-04-07T01:59:58.325Z,99.90
2019-04-07T02:01:03.599Z,99.90
2019-04-07T02:02:12.500Z,99.90
2019-04-07T02:03:34.157Z,99.90
2019-04-07T02:04:51.307Z,99.90
2019-04-07T02:06:02.783Z,99.90
2019-04-07T02:07:09.354Z,99.90
2019-04-07T02:08:27.309Z,99.90
2019-04-07T02:09:39.057Z,99.90
2019-04-07T02:11:02.618Z,99.90
2019-04-07T02:12:07.889Z,99.90
2019-04-07T02:13:18.689Z,99.90
2019-04-07T02:14:41.029Z,99.90
2019-04-07T02:15:56.034Z,99.90
2019-04-07T02:17:01.889Z,99.90
2019-04-07T02:18:07.148Z,99.90
2019-04-07T02:19:18.230Z,99.90
2019-04-07T02:20:51.638Z,99.90
2019-04-07T02:21:56.852Z,99.90
2019-04-07T02:23:10.884Z,99.90
2019-04-07T02:24:16.299Z,99.90
2019-04-07T02:25:27.417Z,99.90
2019-04-07T02:26:38.978Z,99.90
2019-04-07T02:27:47.096Z,99.90
2019-04-07T02:28:52.607Z,99.90
2019-04-07T02:29:57.943Z,99.90
2019-04-07T02:31:06.180Z,99.90
2019-04-07T02:32:29.743Z,99.90
2019-04-07T02:33:35.010Z,99.90
2019-04-07T02:34:58.186Z,99.90
2019-04-07T02:36:17.899Z,99.90
2019-04-07T02:37:16.156Z,99.90
2019-04-07T02:38:27.537Z,99.90
2019-04-07T02:39:35.378Z,99.90
2019-04-07T02:40:56.998Z,99.90
2019-04-07T02:42:15.196Z,99.90
2019-04-07T02:43:21.111Z,99.90
2019-04-07T02:44:45.237Z,99.90
2019-04-07T02:46:05.917Z,99.90
2019-04-07T02:47:21.230Z,99.90
2019-04-07T02:48:39.527Z,99.90
2019-04-07T02:50:01.689Z,99.90
2019-04-07T02:51:13.350Z,99.90
2019-04-07T02:52:28.058Z,99.90
2019-04-07T02:53:33.665Z,99.90
2019-04-07T02:54:44.545Z,99.90
2019-04-07T02:55:50.715Z,99.90
2019-04-07T02:56:58.653Z,99.90
2019-04-07T02:58:16.146Z,99.90
2019-04-07T02:59:41.102Z,99.90
2019-04-07T03:01:01.936Z,99.90
2019-04-07T03:02:23.615Z,99.90
2019-04-07T03:03:34.497Z,99.90
2019-04-07T03:04:44.253Z,99.90
2019-04-07T03:05:49.716Z,99.90
2019-04-07T03:07:10.065Z,99.90
2019-04-07T03:08:18.448Z,99.90
2019-04-07T03:09:33.397Z,99.90
2019-04-07T03:10:39.181Z,99.90
2019-04-07T03:11:44.603Z,99.90
2019-04-07T03:12:53.098Z,99.90
2019-04-07T03:13:58.686Z,99.90
2019-04-07T03:15:09.731Z,99.90
2019-04-07T03:16:17.837Z,99.90
2019-04-07T03:17:35.023Z,99.90
2019-04-07T03:18:40.226Z,99.90
2019-04-07T03:19:52.145Z,99.90
2019-04-07T03:20:59.888Z,99.90
2019-04-07T03:22:06.382Z,99.90
2019-04-07T03:23:14.768Z,99.90
2019-04-07T03:24:20.838Z,99.90
2019-04-07T03:25:42.525Z,99.90
2019-04-07T03:27:00.831Z,99.90
2019-04-07T03:28:06.789Z,99.90
2019-04-07T03:29:12.030Z,99.90
2019-04-07T03:30:33.166Z,99.90
2019-04-07T03:31:51.836Z,99.90
2019-04-07T03:33:07.967Z,99.90
2019-04-07T03:34:14.832Z,99.90
2019-04-07T03:35:23.469Z,99.90
2019-04-07T03:36:29.943Z,99.90
2019-04-07T03:37:46.818Z,99.90
2019-04-07T03:38:55.743Z,99.90
2019-04-07T03:40:04.741Z,99.90
2019-04-07T03:41:19.586Z,99.90
2019-04-07T03:42:27.762Z,99.90
2019-04-07T03:43:35.963Z,99.90
2019-04-07T03:44:43.681Z,99.90
2019-04-07T03:45:49.924Z,99.90
2019-04-07T03:47:01.483Z,99.90
2019-04-07T03:48:25.114Z,99.90
2019-04-07T03:49:47.637Z,99.90
2019-04-07T03:51:09.264Z,99.90
2019-04-07T03:52:17.255Z,99.90
2019-04-07T03:53:28.703Z,99.90
2019-04-07T03:54:43.354Z,99.90
2019-04-07T03:55:54.634Z,99.90
2019-04-07T03:57:09.081Z,99.90
2019-04-07T03:58:14.356Z,99.90
2019-04-07T03:59:20.164Z,99.90
2019-04-07T04:01:00.559Z,99.90
2019-04-07T04:02:15.106Z,99.90
2019-04-07T04:03:20.357Z,99.90
2019-04-07T04:04:41.421Z,99.90
2019-04-07T04:05:53.710Z,99.90
2019-04-07T04:06:59.896Z,99.90
2019-04-07T04:08:14.251Z,99.90
2019-04-07T04:09:38.111Z,99.90
2019-04-07T04:10:41.341Z,99.90
2019-04-07T04:12:03.193Z,99.90
2019-04-07T04:13:17.412Z,99.90
2019-04-07T04:14:31.659Z,99.90
2019-04-07T04:15:39.673Z,99.90
2019-04-07T04:16:45.709Z,99.90
2019-04-07T04:17:49.681Z,99.90
2019-04-07T04:18:53.358Z,99.90
2019-04-07T04:19:57.355Z,99.90
2019-04-07T04:21:01.487Z,99.90
2019-04-07T04:22:05.879Z,99.90
2019-04-07T04:23:11.149Z,99.90
2019-04-07T04:24:14.962Z,99.90
2019-04-07T04:25:19.140Z,99.90
2019-04-07T04:26:23.666Z,99.90
2019-04-07T04:27:28.132Z,99.90
2019-04-07T04:28:31.859Z,99.90
2019-04-07T04:29:35.524Z,99.90
2019-04-07T04:30:39.744Z,99.90
2019-04-07T04:31:43.551Z,99.90
2019-04-07T04:32:47.723Z,99.90
2019-04-07T04:33:51.785Z,99.90
2019-04-07T04:34:56.182Z,99.90
2019-04-07T04:36:00.552Z,99.90
2019-04-07T04:37:04.315Z,99.90
2019-04-07T04:38:08.166Z,99.90
2019-04-07T04:39:12.822Z,99.90
2019-04-07T04:40:16.790Z,99.90
2019-04-07T04:41:21.029Z,99.90
2019-04-07T04:42:25.062Z,99.90
2019-04-07T04:43:28.781Z,99.90
2019-04-07T04:44:32.357Z,99.90
2019-04-07T04:45:36.344Z,99.90
2019-04-07T04:46:41.130Z,99.90
2019-04-07T04:47:45.260Z,99.90
2019-04-07T04:48:49.677Z,99.90
2019-04-07T04:49:53.307Z,99.90
2019-04-07T04:50:57.964Z,99.90
2019-04-07T04:52:01.660Z,99.90
2019-04-07T04:53:06.108Z,99.90
2019-04-07T04:54:10.903Z,99.90
2019-04-07T04:55:15.346Z,99.90
2019-04-07T04:56:19.882Z,99.90
2019-04-07T04:57:23.609Z,99.90
2019-04-07T04:58:28.821Z,99.90
2019-04-07T04:59:33.294Z,99.90
2019-04-07T05:00:36.989Z,99.90
2019-04-07T05:01:40.686Z,99.90
2019-04-07T05:02:44.461Z,99.90
2019-04-07T05:03:48.156Z,99.90
2019-04-07T05:04:51.767Z,99.90
2019-04-07T05:05:56.201Z,99.90
2019-04-07T05:06:59.932Z,99.90
2019-04-07T05:08:05.371Z,99.90
2019-04-07T05:09:09.170Z,99.90
2019-04-07T05:10:13.387Z,99.90
2019-04-07T05:11:17.500Z,99.90
2019-04-07T05:12:21.059Z,99.90
2019-04-07T05:13:25.061Z,99.90
2019-04-07T05:14:28.768Z,99.90
2019-04-07T05:15:32.665Z,99.90
2019-04-07T05:16:36.597Z,99.90
2019-04-07T05:17:41.945Z,99.90
2019-04-07T05:18:46.506Z,99.90
2019-04-07T05:19:50.182Z,99.90
2019-04-07T05:20:54.260Z,99.90
2019-04-07T05:21:58.219Z,99.90
2019-04-07T05:23:02.560Z,99.90
2019-04-07T05:24:06.863Z,99.90
2019-04-07T05:25:10.673Z,99.90
2019-04-07T05:26:14.700Z,99.90
2019-04-07T05:27:18.611Z,99.90
2019-04-07T05:28:22.245Z,99.90
2019-04-07T05:29:25.898Z,99.90
2019-04-07T05:30:29.464Z,99.90
2019-04-07T05:31:33.689Z,99.90
2019-04-07T05:32:37.786Z,99.90
2019-04-07T05:33:42.025Z,99.90
2019-04-07T05:34:45.660Z,99.90
2019-04-07T05:35:49.559Z,99.90
2019-04-07T05:36:53.399Z,99.90
2019-04-07T05:38:02.711Z,99.90
2019-04-07T05:39:02.242Z,99.90
2019-04-07T05:40:06.618Z,99.90
2019-04-07T05:41:10.744Z,99.90
2019-04-07T05:42:14.700Z,99.90
2019-04-07T05:43:18.529Z,99.90
2019-04-07T05:44:22.168Z,99.90
2019-04-07T05:45:25.853Z,99.90
2019-04-07T05:46:30.235Z,99.90
2019-04-07T05:47:33.973Z,99.90
2019-04-07T05:48:38.226Z,99.90
2019-04-07T05:49:41.840Z,99.90
2019-04-07T05:50:46.044Z,99.90
2019-04-07T05:51:50.122Z,99.90
2019-04-07T05:52:53.993Z,99.90
2019-04-07T05:53:58.075Z,99.90
2019-04-07T05:55:02.694Z,99.90
2019-04-07T05:56:06.544Z,99.90
2019-04-07T05:57:10.654Z,99.90
2019-04-07T05:58:15.672Z,99.90
2019-04-07T05:59:19.908Z,99.90
2019-04-07T06:00:23.652Z,99.90
2019-04-07T06:01:27.365Z,99.90
2019-04-07T06:02:32.615Z,99.90
2019-04-07T06:03:41.018Z,99.90
2019-04-07T06:04:41.598Z,99.90
2019-04-07T06:05:49.175Z,99.90
2019-04-07T06:06:52.637Z,99.90
2019-04-07T06:07:55.894Z,99.90
2019-04-07T06:08:59.823Z,99.90
2019-04-07T06:10:04.549Z,99.90
2019-04-07T06:11:08.225Z,99.90
2019-04-07T06:12:12.022Z,99.90
2019-04-07T06:13:15.784Z,99.90
2019-04-07T06:14:19.462Z,99.90
2019-04-07T06:15:23.311Z,99.90
2019-04-07T06:16:27.463Z,99.90
2019-04-07T06:17:31.480Z,99.90
2019-04-07T06:18:35.791Z,99.90
2019-04-07T06:19:41.279Z,99.90
2019-04-07T06:20:46.372Z,99.90
2019-04-07T06:21:50.033Z,99.90
2019-04-07T06:22:54.583Z,99.90
2019-04-07T06:24:00.388Z,99.90
2019-04-07T06:25:05.585Z,99.90
2019-04-07T06:26:11.709Z,99.90
2019-04-07T06:27:16.987Z,99.90
2019-04-07T06:28:20.715Z,99.90
2019-04-07T06:29:26.333Z,99.90
2019-04-07T06:30:31.249Z,99.90
2019-04-07T06:31:34.918Z,99.90
2019-04-07T06:32:39.676Z,99.90
2019-04-07T06:33:43.602Z,99.90
2019-04-07T06:34:49.061Z,99.90
2019-04-07T06:35:54.956Z,99.90
2019-04-07T06:36:58.254Z,99.90
2019-04-07T06:38:05.440Z,99.90
2019-04-07T06:39:08.534Z,99.90
2019-04-07T06:40:12.388Z,99.90
2019-04-07T06:41:16.139Z,99.90
2019-04-07T06:42:19.826Z,99.90
2019-04-07T06:43:23.450Z,99.90
2019-04-07T06:44:27.140Z,99.90
2019-04-07T06:45:33.298Z,99.90
2019-04-07T06:46:53.706Z,99.90
2019-04-07T06:48:01.527Z,99.90
2019-04-07T06:49:06.906Z,99.90
2019-04-07T06:50:19.090Z,99.90
2019-04-07T06:51:25.100Z,99.90
2019-04-07T06:52:41.746Z,99.90
2019-04-07T06:53:49.002Z,99.90
2019-04-07T06:55:10.452Z,99.90
2019-04-07T06:56:16.282Z,99.90
2019-04-07T06:57:37.692Z,99.90
2019-04-07T06:58:50.379Z,99.90
2019-04-07T06:59:55.663Z,99.90
2019-04-07T07:01:10.203Z,99.90
2019-04-07T07:02:32.785Z,99.90
2019-04-07T07:03:51.397Z,99.90
2019-04-07T07:04:57.211Z,99.90
2019-04-07T07:06:08.537Z,99.90
2019-04-07T07:07:18.889Z,99.90
2019-04-07T07:08:26.741Z,99.90
2019-04-07T07:09:38.946Z,99.90
2019-04-07T07:10:50.928Z,99.90
2019-04-07T07:11:56.252Z,99.90
2019-04-07T07:13:28.425Z,99.90
2019-04-07T07:14:43.330Z,99.90
2019-04-07T07:15:42.869Z,99.90
2019-04-07T07:16:51.064Z,99.90
2019-04-07T07:17:58.991Z,99.90
2019-04-07T07:19:04.234Z,99.90
2019-04-07T07:20:10.247Z,99.90
2019-04-07T07:21:15.675Z,99.90
2019-04-07T07:22:41.474Z,99.90
2019-04-07T07:23:48.719Z,99.90
2019-04-07T07:24:51.262Z,99.90
2019-04-07T07:25:56.465Z,99.90
2019-04-07T07:27:00.351Z,99.90
2019-04-07T07:28:04.321Z,99.90
2019-04-07T07:29:08.350Z,99.90
2019-04-07T07:30:13.155Z,99.90
2019-04-07T07:31:18.264Z,99.90
2019-04-07T07:32:22.571Z,99.90
2019-04-07T07:33:26.948Z,99.90
2019-04-07T07:34:30.614Z,99.90
2019-04-07T07:35:34.375Z,99.90
2019-04-07T07:36:38.288Z,99.90
2019-04-07T07:37:41.945Z,99.90
2019-04-07T07:38:57.562Z,99.90
2019-04-07T07:39:50.859Z,99.90
2019-04-07T07:40:54.590Z,99.90
2019-04-07T07:41:58.435Z,99.90
2019-04-07T07:43:02.297Z,99.90
2019-04-07T07:44:07.839Z,99.90
2019-04-07T07:45:13.703Z,99.90
2019-04-07T07:46:20.396Z,99.90
2019-04-07T07:47:22.715Z,99.90
2019-04-07T07:48:28.258Z,99.90
2019-04-07T07:49:35.211Z,99.90
2019-04-07T07:50:38.732Z,99.90
2019-04-07T07:51:45.306Z,99.90
2019-04-07T07:52:51.364Z,99.90
2019-04-07T07:53:56.597Z,99.90
2019-04-07T07:55:00.901Z,99.90
2019-04-07T07:56:08.443Z,99.90
2019-04-07T07:57:09.501Z,99.90
2019-04-07T07:58:13.888Z,99.90
2019-04-07T07:59:17.806Z,99.90
2019-04-07T08:00:22.122Z,99.90
2019-04-07T08:01:25.762Z,99.90
2019-04-07T08:02:31.134Z,99.90
2019-04-07T08:03:35.123Z,99.90
2019-04-07T08:04:38.772Z,99.90
2019-04-07T08:05:43.289Z,99.90
2019-04-07T08:06:46.963Z,99.90
2019-04-07T08:07:51.221Z,99.90
2019-04-07T08:09:06.322Z,99.90
2019-04-07T08:10:00.586Z,99.90
2019-04-07T08:11:05.561Z,99.90
2019-04-07T08:12:09.606Z,99.90
2019-04-07T08:13:14.532Z,99.90
2019-04-07T08:14:18.428Z,99.90
2019-04-07T08:15:25.505Z,99.90
2019-04-07T08:16:31.229Z,99.90
2019-04-07T08:17:33.883Z,99.90
2019-04-07T08:18:40.663Z,99.90
2019-04-07T08:19:44.541Z,99.90
2019-04-07T08:20:48.983Z,99.90
2019-04-07T08:21:53.012Z,99.90
2019-04-07T08:22:56.728Z,99.90
2019-04-07T08:24:00.338Z,99.90
2019-04-07T08:25:05.221Z,99.90
2019-04-07T08:26:09.458Z,99.90
2019-04-07T08:27:13.089Z,99.90
2019-04-07T08:28:19.526Z,99.90
2019-04-07T08:29:23.676Z,99.90
2019-04-07T08:30:28.224Z,99.90
2019-04-07T08:31:32.621Z,99.90
2019-04-07T08:32:36.291Z,99.90
2019-04-07T08:33:39.964Z,99.90
2019-04-07T08:34:43.789Z,99.90
2019-04-07T08:35:48.012Z,99.90
2019-04-07T08:36:51.942Z,99.90
2019-04-07T08:37:55.638Z,99.90
2019-04-07T08:38:59.549Z,99.90
2019-04-07T08:40:07.165Z,99.90
2019-04-07T08:41:11.250Z,99.90
2019-04-07T08:42:17.466Z,99.90
2019-04-07T08:43:21.216Z,99.90
2019-04-07T08:44:26.934Z,99.90
2019-04-07T08:45:32.415Z,99.90
2019-04-07T08:46:39.405Z,99.90
2019-04-07T08:47:40.553Z,99.90
2019-04-07T08:48:44.392Z,99.90
2019-04-07T08:49:48.240Z,99.90
2019-04-07T08:50:51.938Z,99.90
2019-04-07T08:51:56.111Z,99.90
2019-04-07T08:52:59.692Z,99.90
2019-04-07T08:54:04.804Z,99.90
2019-04-07T08:55:09.117Z,99.90
2019-04-07T08:56:12.998Z,99.90
2019-04-07T08:57:16.681Z,99.90
2019-04-07T08:58:27.188Z,99.90
2019-04-07T08:59:25.942Z,99.90
2019-04-07T09:00:31.599Z,99.90
2019-04-07T09:01:36.086Z,99.90
2019-04-07T09:02:39.736Z,99.90
2019-04-07T09:03:45.396Z,99.90
2019-04-07T09:04:51.911Z,99.90
2019-04-07T09:05:56.527Z,99.90
2019-04-07T09:07:01.531Z,99.90
2019-04-07T09:08:06.114Z,99.90
2019-04-07T09:09:10.035Z,99.90
2019-04-07T09:10:18.314Z,99.90
2019-04-07T09:11:23.626Z,99.90
2019-04-07T09:12:30.698Z,99.90
2019-04-07T09:13:34.196Z,99.90
2019-04-07T09:14:39.736Z,99.90
2019-04-07T09:15:49.652Z,99.90
2019-04-07T09:17:00.697Z,99.90
2019-04-07T09:18:15.906Z,99.90
2019-04-07T09:19:38.508Z,99.90
2019-04-07T09:20:45.578Z,99.90
2019-04-07T09:21:51.858Z,99.90
2019-04-07T09:23:07.061Z,99.90
2019-04-07T09:24:31.411Z,99.80
2019-04-07T09:25:52.316Z,97.70
2019-04-07T09:27:03.430Z,97.30
2019-04-07T09:28:11.823Z,94.70
2019-04-07T09:29:28.163Z,94.80
2019-04-07T09:30:33.059Z,93.60
2019-04-07T09:31:54.947Z,91.90
2019-04-07T09:33:18.133Z,91.50
2019-04-07T09:34:29.146Z,91.30
2019-04-07T09:35:49.762Z,92.00
2019-04-07T09:37:11.837Z,92.40
2019-04-07T09:38:24.936Z,91.30
2019-04-07T09:39:54.026Z,91.60
2019-04-07T09:40:48.703Z,90.20
2019-04-07T09:41:55.191Z,89.80
2019-04-07T09:43:18.928Z,89.70
2019-04-07T09:44:40.558Z,90.00
2019-04-07T09:45:49.075Z,88.30
2019-04-07T09:47:04.221Z,86.00
2019-04-07T09:48:22.908Z,85.70
2019-04-07T09:49:48.131Z,81.40
2019-04-07T09:51:02.212Z,81.10
2019-04-07T09:52:13.894Z,81.60
2019-04-07T09:53:21.411Z,83.50
2019-04-07T09:54:43.768Z,82.20
2019-04-07T09:55:59.133Z,78.40
2019-04-07T09:57:06.941Z,78.80
2019-04-07T09:58:23.839Z,79.30
2019-04-07T09:59:31.913Z,77.70
2019-04-07T10:00:39.897Z,75.70
2019-04-07T10:02:03.297Z,76.70
2019-04-07T10:03:24.087Z,76.00
2019-04-07T10:04:29.419Z,73.10
2019-04-07T10:05:34.738Z,74.60
2019-04-07T10:06:49.648Z,73.00
2019-04-07T10:07:57.958Z,72.80
2019-04-07T10:09:19.697Z,71.60
2019-04-07T10:10:28.150Z,70.80
2019-04-07T10:11:44.533Z,70.10
2019-04-07T10:13:08.073Z,72.20
2019-04-07T10:14:29.657Z,74.20
2019-04-07T10:15:35.267Z,75.20
2019-04-07T10:16:41.922Z,77.60
2019-04-07T10:18:04.140Z,78.30
2019-04-07T10:19:11.905Z,77.30
2019-04-07T10:20:33.599Z,78.50
2019-04-07T10:21:54.059Z,76.20
2019-04-07T10:23:05.195Z,78.40
2019-04-07T10:24:19.742Z,77.00
2019-04-07T10:25:30.698Z,78.00
2019-04-07T10:26:41.897Z,78.90
2019-04-07T10:27:50.799Z,77.40
2019-04-07T10:28:59.513Z,77.00
2019-04-07T10:30:22.493Z,75.90
2019-04-07T10:31:28.351Z,77.60
2019-04-07T10:32:34.019Z,77.00
2019-04-07T10:33:42.722Z,80.90
2019-04-07T10:34:48.473Z,79.50
2019-04-07T10:36:09.251Z,78.30
2019-04-07T10:37:14.625Z,78.30
2019-04-07T10:38:38.206Z,80.90
2019-04-07T10:39:46.496Z,82.70
2019-04-07T10:40:51.785Z,84.40
2019-04-07T10:42:02.951Z,84.40
2019-04-07T10:43:17.397Z,85.20
2019-04-07T10:44:40.932Z,85.20
2019-04-07T10:45:58.735Z,84.70
2019-04-07T10:47:03.972Z,85.90
2019-04-07T10:48:21.210Z,85.90
2019-04-07T10:49:27.328Z,85.70
2019-04-07T10:50:38.792Z,86.20
2019-04-07T10:51:50.074Z,86.70
2019-04-07T10:53:14.224Z,85.20
2019-04-07T10:54:28.704Z,86.00
2019-04-07T10:55:40.562Z,88.70
2019-04-07T10:56:55.257Z,90.20
2019-04-07T10:58:00.582Z,90.40
2019-04-07T10:59:12.564Z,90.40
2019-04-07T11:00:18.137Z,90.90
2019-04-07T11:01:29.162Z,90.90
2019-04-07T11:02:40.462Z,90.00
2019-04-07T11:03:57.811Z,90.00
2019-04-07T11:05:03.089Z,90.40
2019-04-07T11:06:11.617Z,89.20
2019-04-07T11:07:21.632Z,90.00
2019-04-07T11:08:42.256Z,91.00
2019-04-07T11:09:50.965Z,91.40
2019-04-07T11:10:59.821Z,91.40
2019-04-07T11:12:21.165Z,91.20
2019-04-07T11:13:27.630Z,91.90
2019-04-07T11:14:35.669Z,91.90
2019-04-07T11:15:46.464Z,91.00
2019-04-07T11:17:08.164Z,90.70
2019-04-07T11:18:13.632Z,90.50
2019-04-07T11:19:18.929Z,91.00
2019-04-07T11:20:33.796Z,92.20
2019-04-07T11:21:51.708Z,91.90
2019-04-07T11:23:00.855Z,92.40
2019-04-07T11:24:12.392Z,92.90
2019-04-07T11:25:27.258Z,93.10
2019-04-07T11:26:48.854Z,93.70
2019-04-07T11:28:11.134Z,93.90
2019-04-07T11:29:22.895Z,94.40
2019-04-07T11:30:37.301Z,95.00
2019-04-07T11:31:42.878Z,95.20
2019-04-07T11:32:54.333Z,94.80
2019-04-07T11:34:05.503Z,95.10
2019-04-07T11:35:29.552Z,95.70
2019-04-07T11:36:49.851Z,96.50
2019-04-07T11:37:55.156Z,95.60
2019-04-07T11:39:15.444Z,97.30
2019-04-07T11:40:42.517Z,96.50
2019-04-07T11:41:47.195Z,95.70
2019-04-07T11:43:09.198Z,95.90
2019-04-07T11:44:15.004Z,96.50
2019-04-07T11:45:20.728Z,96.30
2019-04-07T11:46:31.969Z,96.40
2019-04-07T11:47:38.021Z,97.20
2019-04-07T11:49:00.179Z,96.70
2019-04-07T11:50:10.506Z,96.80
2019-04-07T11:51:33.943Z,96.90
2019-04-07T11:52:52.618Z,96.40
2019-04-07T11:54:07.644Z,96.90
2019-04-07T11:55:13.887Z,97.40
2019-04-07T11:56:35.247Z,97.70
2019-04-07T11:58:09.516Z,97.60
2019-04-07T11:59:12.422Z,96.80
2019-04-07T12:00:35.820Z,97.00
2019-04-07T12:01:46.830Z,97.40
2019-04-07T12:02:54.368Z,98.00
2019-04-07T12:04:18.541Z,98.90
2019-04-07T12:05:24.493Z,99.20
2019-04-07T12:06:49.801Z,99.30
2019-04-07T12:07:58.755Z,98.50
2019-04-07T12:09:23.815Z,98.80
2019-04-07T12:10:56.402Z,98.80
2019-04-07T12:11:52.623Z,99.40
2019-04-07T12:13:16.489Z,98.80
2019-04-07T12:14:28.686Z,98.00
2019-04-07T12:15:50.850Z,99.20
2019-04-07T12:17:13.498Z,99.50
2019-04-07T12:18:20.215Z,99.80
2019-04-07T12:19:32.078Z,99.90
2019-04-07T12:20:37.617Z,99.50
2019-04-07T12:21:43.718Z,99.10
2019-04-07T12:22:58.273Z,98.10
2019-04-07T12:24:03.571Z,98.30
2019-04-07T12:25:14.788Z,98.90
2019-04-07T12:26:20.487Z,99.00
2019-04-07T12:27:28.633Z,99.50
2019-04-07T12:28:37.565Z,99.00
2019-04-07T12:29:51.630Z,99.40
2019-04-07T12:30:56.928Z,98.90
2019-04-07T12:32:11.646Z,98.90
2019-04-07T12:33:32.798Z,98.80
2019-04-07T12:34:54.716Z,98.40
2019-04-07T12:36:03.343Z,96.90
2019-04-07T12:37:11.486Z,96.00
2019-04-07T12:38:32.045Z,96.80
2019-04-07T12:39:50.935Z,97.40
2019-04-07T12:41:12.477Z,96.40
2019-04-07T12:42:04.896Z,96.20
2019-04-07T12:43:19.439Z,98.00
2019-04-07T12:44:27.737Z,97.70
2019-04-07T12:45:38.869Z,95.30
2019-04-07T12:47:00.563Z,94.70
2019-04-07T12:48:09.164Z,93.80
2019-04-07T12:49:24.281Z,94.00
2019-04-07T12:50:32.827Z,94.10
2019-04-07T12:51:38.571Z,94.60
2019-04-07T12:52:44.085Z,93.20
2019-04-07T12:54:07.338Z,93.10
2019-04-07T12:55:28.426Z,92.90
2019-04-07T12:56:50.414Z,91.60
2019-04-07T12:57:56.431Z,90.20
2019-04-07T12:59:01.877Z,90.30
2019-04-07T13:00:15.729Z,89.30
2019-04-07T13:01:32.810Z,88.60
2019-04-07T13:02:55.230Z,89.60
2019-04-07T13:04:00.758Z,90.70
2019-04-07T13:05:12.138Z,89.00
2019-04-07T13:06:23.932Z,90.50
2019-04-07T13:07:29.344Z,90.10
2019-04-07T13:08:38.168Z,88.40
2019-04-07T13:09:52.320Z,89.70
2019-04-07T13:10:57.618Z,90.10
2019-04-07T13:12:05.834Z,90.10
2019-04-07T13:13:11.328Z,89.30
2019-04-07T13:14:24.561Z,87.50
2019-04-07T13:15:45.468Z,86.90
2019-04-07T13:17:05.435Z,89.60
2019-04-07T13:18:11.999Z,89.40
2019-04-07T13:19:23.116Z,90.30
2019-04-07T13:20:34.677Z,92.10
2019-04-07T13:21:40.372Z,91.30
2019-04-07T13:22:55.155Z,91.10
2019-04-07T13:24:00.493Z,91.10
2019-04-07T13:25:09.864Z,91.30
2019-04-07T13:26:15.359Z,91.60
2019-04-07T13:27:39.120Z,91.80
2019-04-07T13:28:50.105Z,91.60
2019-04-07T13:29:55.443Z,91.00
2019-04-07T13:31:17.075Z,91.90
2019-04-07T13:32:39.409Z,90.50
2019-04-07T13:33:39.365Z,90.20
2019-04-07T13:34:49.755Z,87.90
2019-04-07T13:36:07.155Z,90.20
2019-04-07T13:37:13.458Z,87.40
2019-04-07T13:38:18.691Z,86.90
2019-04-07T13:39:26.596Z,85.40
2019-04-07T13:40:34.887Z,86.80
2019-04-07T13:41:56.660Z,85.50
2019-04-07T13:43:05.711Z,84.40
2019-04-07T13:44:23.341Z,83.60
2019-04-07T13:45:37.633Z,84.50
2019-04-07T13:46:43.312Z,84.40
2019-04-07T13:47:55.641Z,84.20
2019-04-07T13:49:09.980Z,85.00
2019-04-07T13:50:19.201Z,89.40
2019-04-07T13:51:30.426Z,88.80
2019-04-07T13:52:55.351Z,85.60
2019-04-07T13:54:15.256Z,87.10
2019-04-07T13:55:20.542Z,85.60
2019-04-07T13:56:26.456Z,84.10
2019-04-07T13:57:48.377Z,86.30
2019-04-07T13:59:06.630Z,85.60
2019-04-07T14:00:18.486Z,80.90
2019-04-07T14:01:32.249Z,82.90
2019-04-07T14:02:36.478Z,82.10
2019-04-07T14:03:58.946Z,82.60
2019-04-07T14:05:13.525Z,84.20
2019-04-07T14:06:24.821Z,83.10
2019-04-07T14:07:34.956Z,82.70
2019-04-07T14:08:39.457Z,85.40
2019-04-07T14:10:04.378Z,84.40
2019-04-07T14:11:10.992Z,82.50
2019-04-07T14:12:18.967Z,82.10
2019-04-07T14:13:24.545Z,82.10
2019-04-07T14:14:39.429Z,83.60
2019-04-07T14:15:50.941Z,79.90
2019-04-07T14:17:01.869Z,78.90
2019-04-07T14:18:19.131Z,80.80
2019-04-07T14:19:30.273Z,81.50
2019-04-07T14:20:35.483Z,81.40
2019-04-07T14:21:40.751Z,81.80
2019-04-07T14:22:48.845Z,82.70
2019-04-07T14:23:57.227Z,81.70
2019-04-07T14:25:05.240Z,85.10
2019-04-07T14:26:26.901Z,82.20
2019-04-07T14:27:32.241Z,82.20
2019-04-07T14:28:40.179Z,81.60
2019-04-07T14:29:45.959Z,83.00
2019-04-07T14:30:54.331Z,83.90
2019-04-07T14:32:17.285Z,84.40
2019-04-07T14:33:23.003Z,85.60
2019-04-07T14:34:41.287Z,85.80
2019-04-07T14:35:49.910Z,86.70
2019-04-07T14:37:04.331Z,86.70
2019-04-07T14:38:27.432Z,85.00
2019-04-07T14:39:32.716Z,88.50
2019-04-07T14:40:46.694Z,85.20
2019-04-07T14:42:00.975Z,84.30
2019-04-07T14:42:59.400Z,84.20
2019-04-07T14:44:05.244Z,84.50
2019-04-07T14:45:26.417Z,84.40
2019-04-07T14:46:32.646Z,82.10
2019-04-07T14:47:54.580Z,82.10
2019-04-07T14:49:15.618Z,82.00
2019-04-07T14:50:18.979Z,83.80